Razende Bol — PFSD — position and weather

sailwx.info

Track history (hours):
 
Tides and Currents Weather Stations Pressure Air Temp Water Temp Dewpoint Dewpoint Depression Visibility Wind Speed Wind Dir Waves Ship Positions

Razende Bol

Last reported at 2016-Feb-08 20:31 UTC. Time now 2016-Feb-08 21:18 UTC.
Position N 53°32' E 009°57'.

Length 46 m; draft 2 m.

Type: Dredging. MMSI: 244963000.

Date/timePositionNaut miles runAvg speedWind from/ knotsBaromVisibWave heightAir tempDewpointWater temp
2016-Feb-08 20:31N 53°32' E 009°57'0 0.0
2016-Feb-08 19:31N 53°32' E 009°57'0 0.0
2016-Feb-08 18:28N 53°32' E 009°57'2 2.0
2016-Feb-08 17:31N 53°32' E 009°54'2 2.4
2016-Feb-08 16:32N 53°33' E 009°50'4 3.7
2016-Feb-08 15:33N 53°34' E 009°44'4 3.6
2016-Feb-08 14:29N 53°35' E 009°38'0 0.0
2016-Feb-08 13:32N 53°35' E 009°38'0 0.0
2016-Feb-08 12:32N 53°35' E 009°38'0 0.0
2016-Feb-08 11:32N 53°35' E 009°38'0 0.0
2016-Feb-08 10:29N 53°35' E 009°38'0 0.0
2016-Feb-08 09:17N 53°35' E 009°38'0 0.0
2016-Feb-08 08:32N 53°35' E 009°38'0 0.0
2016-Feb-08 07:20N 53°35' E 009°38'0 0.0
2016-Feb-08 06:23N 53°35' E 009°38'0 0.0
2016-Feb-08 05:32N 53°35' E 009°38'0 0.1
2016-Feb-08 04:29N 53°35' E 009°38'0 0.0
2016-Feb-08 03:29N 53°35' E 009°38'0 0.0
2016-Feb-08 02:29N 53°35' E 009°38'0 0.0
2016-Feb-08 01:29N 53°35' E 009°38'0 0.0
2016-Feb-08 00:29N 53°35' E 009°38'0 0.0
2016-Feb-07 23:29N 53°35' E 009°38'0 0.0
2016-Feb-07 22:23N 53°35' E 009°38'0 0.1
2016-Feb-07 21:17N 53°35' E 009°38'0 0.1
2016-Feb-07 20:32N 53°35' E 009°38'0 0.0
2016-Feb-07 19:29N 53°35' E 009°38'0 0.0
2016-Feb-07 18:29N 53°35' E 009°38'0 0.0
2016-Feb-07 17:32N 53°35' E 009°38'0 0.0
2016-Feb-07 16:32N 53°35' E 009°38'0 0.1
2016-Feb-07 15:32N 53°35' E 009°38'0 0.0
2016-Feb-07 14:23N 53°35' E 009°38'0 0.0
2016-Feb-07 13:26N 53°35' E 009°38'0 0.0
2016-Feb-07 12:32N 53°35' E 009°38'3 0.5
2016-Feb-07 07:33N 53°34' E 009°41'6 5.9
2016-Feb-07 06:33N 53°33' E 009°51'3 3.3
2016-Feb-07 05:32N 53°32' E 009°57'0 0.0
2016-Feb-07 04:32N 53°32' E 009°57'0 0.0
2016-Feb-07 03:32N 53°32' E 009°57'0 0.0
2016-Feb-07 02:29N 53°32' E 009°57'0 0.0
2016-Feb-07 01:32N 53°32' E 009°57'0 0.0
2016-Feb-07 00:32N 53°32' E 009°57'0 0.0
2016-Feb-06 23:32N 53°32' E 009°57'0 0.0
2016-Feb-06 22:32N 53°32' E 009°57'0 0.0
2016-Feb-06 21:32N 53°32' E 009°57'0 0.0
2016-Feb-06 20:32N 53°32' E 009°57'0 0.0
2016-Feb-06 19:32N 53°32' E 009°57'0 0.0
2016-Feb-06 18:32N 53°32' E 009°57'0 0.0
2016-Feb-06 17:32N 53°32' E 009°57'0 0.0
2016-Feb-06 16:32N 53°32' E 009°57'0 0.0
2016-Feb-06 15:32N 53°32' E 009°57'0 0.0
2016-Feb-06 14:32N 53°32' E 009°57'0 0.0
2016-Feb-06 13:32N 53°32' E 009°57'0 0.0
2016-Feb-06 12:32N 53°32' E 009°57'0 0.0
2016-Feb-06 11:32N 53°32' E 009°57'0 0.0
2016-Feb-06 10:32N 53°32' E 009°57'0 0.0
2016-Feb-06 09:29N 53°32' E 009°57'0 0.0
2016-Feb-06 08:32N 53°32' E 009°57'0 0.0
2016-Feb-06 07:32N 53°32' E 009°57'0 0.0
2016-Feb-06 06:32N 53°32' E 009°57'0 0.0
2016-Feb-06 05:32N 53°32' E 009°57'0 0.0
2016-Feb-06 04:32N 53°32' E 009°57'0 0.0
2016-Feb-06 03:32N 53°32' E 009°57'0 0.0
2016-Feb-06 02:32N 53°32' E 009°57'0 0.0
2016-Feb-06 01:32N 53°32' E 009°57'0 0.0
2016-Feb-06 00:32N 53°32' E 009°57'0 0.0
2016-Feb-05 23:32N 53°32' E 009°57'0 0.0
2016-Feb-05 22:32N 53°32' E 009°57'0 0.0
2016-Feb-05 21:32N 53°32' E 009°57'0 0.0
2016-Feb-05 20:32N 53°32' E 009°57'0 0.0
2016-Feb-05 19:32N 53°32' E 009°57'0 0.0
2016-Feb-05 18:32N 53°32' E 009°57'0 0.0
2016-Feb-05 17:32N 53°32' E 009°57'0 0.0
2016-Feb-05 16:32N 53°32' E 009°57'0 0.0
2016-Feb-05 15:29N 53°32' E 009°57'0 0.0
2016-Feb-05 14:32N 53°32' E 009°57'0 0.0
2016-Feb-05 13:32N 53°32' E 009°57'0 0.0
2016-Feb-05 12:32N 53°32' E 009°57'0 0.0
2016-Feb-05 11:32N 53°32' E 009°57'0 0.0
2016-Feb-05 10:32N 53°32' E 009°57'0 0.0
2016-Feb-05 09:32N 53°32' E 009°57'0 0.0
2016-Feb-05 08:32N 53°32' E 009°57'0 0.0
2016-Feb-05 07:32N 53°32' E 009°57'0 0.0
2016-Feb-05 06:32N 53°32' E 009°57'0 0.0
2016-Feb-05 05:32N 53°32' E 009°57'0 0.0
2016-Feb-05 04:32N 53°32' E 009°57'0 0.0
2016-Feb-05 03:32N 53°32' E 009°57'0 0.0
2016-Feb-05 02:32N 53°32' E 009°57'0 0.0
2016-Feb-05 01:32N 53°32' E 009°57'0 0.0
2016-Feb-05 00:32N 53°32' E 009°57'0 0.0
2016-Feb-04 23:32N 53°32' E 009°57'0 0.0
2016-Feb-04 22:32N 53°32' E 009°57'0 0.0
2016-Feb-04 21:32N 53°32' E 009°57'0 0.0
2016-Feb-04 20:32N 53°32' E 009°57'0 0.0
2016-Feb-04 19:32N 53°32' E 009°57'0 0.0
2016-Feb-04 18:32N 53°32' E 009°57'0 0.0
2016-Feb-04 17:32N 53°32' E 009°57'0 0.0
2016-Feb-04 16:32N 53°32' E 009°57'0 0.0
2016-Feb-04 15:32N 53°32' E 009°57'0 0.0
2016-Feb-04 14:32N 53°32' E 009°57'0 0.0
2016-Feb-04 13:32N 53°32' E 009°57'0 0.0
2016-Feb-04 12:32N 53°32' E 009°57'0 0.0
2016-Feb-04 11:29N 53°32' E 009°57'0 0.0
2016-Feb-04 10:32N 53°32' E 009°57'0 0.0
2016-Feb-04 09:32N 53°32' E 009°57'0 0.0
2016-Feb-04 08:32N 53°32' E 009°57'0 0.0
2016-Feb-04 07:32N 53°32' E 009°57'0 0.0
2016-Feb-04 06:32N 53°32' E 009°57'0 0.0
2016-Feb-04 05:29N 53°32' E 009°57'0 0.0
2016-Feb-04 04:32N 53°32' E 009°57'0 0.0
2016-Feb-04 03:32N 53°32' E 009°57'0 0.0
2016-Feb-04 02:32N 53°32' E 009°57'0 0.0
2016-Feb-04 01:32N 53°32' E 009°57'0 0.0
2016-Feb-04 00:32N 53°32' E 009°57'0 0.0
2016-Feb-03 23:32N 53°32' E 009°57'0 0.0
2016-Feb-03 22:32N 53°32' E 009°57'0 0.0
2016-Feb-03 21:32N 53°32' E 009°57'0 0.0
2016-Feb-03 20:32N 53°32' E 009°57'0 0.0
2016-Feb-03 19:32N 53°32' E 009°57'0 0.0
2016-Feb-03 18:32N 53°32' E 009°57'0 0.0
2016-Feb-03 17:32N 53°32' E 009°57'0 0.0
2016-Feb-03 16:32N 53°32' E 009°57'0 0.0
2016-Feb-03 15:32N 53°32' E 009°57'0 0.0
2016-Feb-03 14:32N 53°32' E 009°57'0 0.0
2016-Feb-03 13:32N 53°32' E 009°57'0 0.0
2016-Feb-03 12:32N 53°32' E 009°57'0 0.0
2016-Feb-03 11:32N 53°32' E 009°57'0 0.0
2016-Feb-03 10:32N 53°32' E 009°57'0 0.0
2016-Feb-03 09:32N 53°32' E 009°57'0 0.0
2016-Feb-03 08:32N 53°32' E 009°57'0 0.1
2016-Feb-03 07:32N 53°32' E 009°57'0 0.0
2016-Feb-03 06:32N 53°32' E 009°57'0 0.0
2016-Feb-03 05:32N 53°32' E 009°57'0 0.1
2016-Feb-03 04:32N 53°32' E 009°57'0 0.0
2016-Feb-03 03:32N 53°32' E 009°57'0 0.0
2016-Feb-03 02:32N 53°32' E 009°57'0 0.0
2016-Feb-03 01:32N 53°32' E 009°57'0 0.0
2016-Feb-03 00:32N 53°32' E 009°57'0 0.0
2016-Feb-02 23:32N 53°32' E 009°57'0 0.0
2016-Feb-02 22:32N 53°32' E 009°57'0 0.0
2016-Feb-02 21:32N 53°32' E 009°57'0 0.0
2016-Feb-02 20:32N 53°32' E 009°57'0 0.0
2016-Feb-02 19:29N 53°32' E 009°57'0 0.0
2016-Feb-02 18:29N 53°32' E 009°57'0 0.0
2016-Feb-02 17:32N 53°32' E 009°57'0 0.0
2016-Feb-02 16:32N 53°32' E 009°57'0 0.0
2016-Feb-02 15:32N 53°32' E 009°57'0 0.0
2016-Feb-02 14:32N 53°32' E 009°57'0 0.0
2016-Feb-02 13:32N 53°32' E 009°57'0 0.0
2016-Feb-02 12:32N 53°32' E 009°57'0 0.0
2016-Feb-02 11:32N 53°32' E 009°57'0 0.0
2016-Feb-02 10:32N 53°32' E 009°57'0 0.0
2016-Feb-02 09:32N 53°32' E 009°57'0 0.0
2016-Feb-02 08:32N 53°32' E 009°57'0 0.0
2016-Feb-02 07:32N 53°32' E 009°57'0 0.0
2016-Feb-02 06:32N 53°32' E 009°57'0 0.0
2016-Feb-02 05:32N 53°32' E 009°57'0 0.0
2016-Feb-02 04:32N 53°32' E 009°57'0 0.0
2016-Feb-02 03:32N 53°32' E 009°57'0 0.0
2016-Feb-02 02:32N 53°32' E 009°57'0 0.0
2016-Feb-02 01:32N 53°32' E 009°57'0 0.0
2016-Feb-02 00:32N 53°32' E 009°57'0 0.0
2016-Feb-01 23:32N 53°32' E 009°57'0 0.0
2016-Feb-01 22:32N 53°32' E 009°57'0 0.0
2016-Feb-01 21:32N 53°32' E 009°57'0 0.0
2016-Feb-01 20:29N 53°32' E 009°57'0 0.0
2016-Feb-01 19:32N 53°32' E 009°57'0 0.0
2016-Feb-01 18:32N 53°32' E 009°57'0 0.0
2016-Feb-01 17:32N 53°32' E 009°57'0 0.0
2016-Feb-01 16:32N 53°32' E 009°57'0 0.0
2016-Feb-01 15:32N 53°32' E 009°57'0 0.0
2016-Feb-01 14:32N 53°32' E 009°57'0 0.0
2016-Feb-01 13:32N 53°32' E 009°57'0 0.0
2016-Feb-01 12:32N 53°32' E 009°57'0 0.0
2016-Feb-01 11:29N 53°32' E 009°57'0 0.0
2016-Feb-01 10:32N 53°32' E 009°57'0 0.0
2016-Feb-01 09:32N 53°32' E 009°57'0 0.0
2016-Feb-01 08:32N 53°32' E 009°57'0 0.0
2016-Feb-01 07:32N 53°32' E 009°57'0 0.0
2016-Feb-01 06:32N 53°32' E 009°57'0 0.0
2016-Feb-01 05:32N 53°32' E 009°57'0 0.0
2016-Feb-01 04:32N 53°32' E 009°57'0 0.0
2016-Feb-01 03:32N 53°32' E 009°57'0 0.0
2016-Feb-01 02:32N 53°32' E 009°57'0 0.0
2016-Feb-01 01:32N 53°32' E 009°57'0 0.0
2016-Feb-01 00:32N 53°32' E 009°57'0 0.0
2016-Jan-31 23:32N 53°32' E 009°57'0 0.0
2016-Jan-31 22:32N 53°32' E 009°57'0 0.0
2016-Jan-31 21:32N 53°32' E 009°57'0 0.0
2016-Jan-31 20:32N 53°32' E 009°57'0 0.0
2016-Jan-31 19:32N 53°32' E 009°57'0 0.0
2016-Jan-31 18:32N 53°32' E 009°57'0 0.0
2016-Jan-31 17:32N 53°32' E 009°57'0 0.0
2016-Jan-31 16:32N 53°32' E 009°57'0 0.0
2016-Jan-31 15:32N 53°32' E 009°57'0 0.0
2016-Jan-31 14:32N 53°32' E 009°57'0 0.0
2016-Jan-31 13:32N 53°32' E 009°57'0 0.0
2016-Jan-31 12:32N 53°32' E 009°57'0 0.0
2016-Jan-31 11:32N 53°32' E 009°57'0 0.0
2016-Jan-31 10:32N 53°32' E 009°57'0 0.0
2016-Jan-31 09:32N 53°32' E 009°57'0 0.0
2016-Jan-31 08:32N 53°32' E 009°57'0 0.0
2016-Jan-31 07:32N 53°32' E 009°57'0 0.0
2016-Jan-31 06:32N 53°32' E 009°57'0 0.0
2016-Jan-31 05:32N 53°32' E 009°57'0 0.0
2016-Jan-31 04:32N 53°32' E 009°57'0 0.0
2016-Jan-31 03:32N 53°32' E 009°57'0 0.0
2016-Jan-31 02:32N 53°32' E 009°57'0 0.0
2016-Jan-31 01:32N 53°32' E 009°57'0 0.0
2016-Jan-31 00:32N 53°32' E 009°57'0 0.0
2016-Jan-30 23:32N 53°32' E 009°57'0 0.0
2016-Jan-30 22:32N 53°32' E 009°57'0 0.0
2016-Jan-30 21:32N 53°32' E 009°57'0 0.0
2016-Jan-30 20:32N 53°32' E 009°57'0 0.0
2016-Jan-30 19:32N 53°32' E 009°57'0 0.0
2016-Jan-30 18:32N 53°32' E 009°57'0 0.0
2016-Jan-30 17:32N 53°32' E 009°57'0 0.0
2016-Jan-30 16:32N 53°32' E 009°57'0 0.0
2016-Jan-30 15:32N 53°32' E 009°57'0 0.0
2016-Jan-30 14:32N 53°32' E 009°57'0 0.0
2016-Jan-30 13:32N 53°32' E 009°57'0 0.0
2016-Jan-30 12:32N 53°32' E 009°57'0 0.0
2016-Jan-30 11:32N 53°32' E 009°57'0 0.0
2016-Jan-30 10:32N 53°32' E 009°57'0 0.0
2016-Jan-30 09:32N 53°32' E 009°57'0 0.0
2016-Jan-30 08:32N 53°32' E 009°57'0 0.0
2016-Jan-30 07:32N 53°32' E 009°57'0 0.0
2016-Jan-30 06:32N 53°32' E 009°57'0 0.0
2016-Jan-30 05:29N 53°32' E 009°57'0 0.0
2016-Jan-30 04:32N 53°32' E 009°57'0 0.0
2016-Jan-30 03:32N 53°32' E 009°57'0 0.0
2016-Jan-30 02:32N 53°32' E 009°57'0 0.0
2016-Jan-30 01:32N 53°32' E 009°57'0 0.0
2016-Jan-30 00:32N 53°32' E 009°57'0 0.0
2016-Jan-29 23:32N 53°32' E 009°57'0 0.0
2016-Jan-29 22:32N 53°32' E 009°57'0 0.0
2016-Jan-29 21:32N 53°32' E 009°57'0 0.0
2016-Jan-29 20:32N 53°32' E 009°57'  
Track history (hours):
 
Tides and Currents Weather Stations Pressure Air Temp Water Temp Dewpoint Dewpoint Depression Visibility Wind Speed Wind Dir Waves Ship Positions

Razende Bol

Last reported at 2016-Feb-08 20:31 UTC. Time now 2016-Feb-08 21:18 UTC.
Position N 53°32' E 009°57'.

Length 46 m; draft 2 m.

Type: Dredging. MMSI: 244963000.

Date/timePositionNaut miles runAvg speedWind from/ knotsBaromVisibWave heightAir tempDewpointWater temp
2016-Feb-08 20:31N 53°32' E 009°57'0 0.0
2016-Feb-08 19:31N 53°32' E 009°57'0 0.0
2016-Feb-08 18:28N 53°32' E 009°57'2 2.0
2016-Feb-08 17:31N 53°32' E 009°54'2 2.4
2016-Feb-08 16:32N 53°33' E 009°50'4 3.7
2016-Feb-08 15:33N 53°34' E 009°44'4 3.6
2016-Feb-08 14:29N 53°35' E 009°38'0 0.0
2016-Feb-08 13:32N 53°35' E 009°38'0 0.0
2016-Feb-08 12:32N 53°35' E 009°38'0 0.0
2016-Feb-08 11:32N 53°35' E 009°38'0 0.0
2016-Feb-08 10:29N 53°35' E 009°38'0 0.0
2016-Feb-08 09:17N 53°35' E 009°38'0 0.0
2016-Feb-08 08:32N 53°35' E 009°38'0 0.0
2016-Feb-08 07:20N 53°35' E 009°38'0 0.0
2016-Feb-08 06:23N 53°35' E 009°38'0 0.0
2016-Feb-08 05:32N 53°35' E 009°38'0 0.1
2016-Feb-08 04:29N 53°35' E 009°38'0 0.0
2016-Feb-08 03:29N 53°35' E 009°38'0 0.0
2016-Feb-08 02:29N 53°35' E 009°38'0 0.0
2016-Feb-08 01:29N 53°35' E 009°38'0 0.0
2016-Feb-08 00:29N 53°35' E 009°38'0 0.0
2016-Feb-07 23:29N 53°35' E 009°38'0 0.0
2016-Feb-07 22:23N 53°35' E 009°38'0 0.1
2016-Feb-07 21:17N 53°35' E 009°38'0 0.1
2016-Feb-07 20:32N 53°35' E 009°38'0 0.0
2016-Feb-07 19:29N 53°35' E 009°38'0 0.0
2016-Feb-07 18:29N 53°35' E 009°38'0 0.0
2016-Feb-07 17:32N 53°35' E 009°38'0 0.0
2016-Feb-07 16:32N 53°35' E 009°38'0 0.1
2016-Feb-07 15:32N 53°35' E 009°38'0 0.0
2016-Feb-07 14:23N 53°35' E 009°38'0 0.0
2016-Feb-07 13:26N 53°35' E 009°38'0 0.0
2016-Feb-07 12:32N 53°35' E 009°38'3 0.5
2016-Feb-07 07:33N 53°34' E 009°41'6 5.9
2016-Feb-07 06:33N 53°33' E 009°51'3 3.3
2016-Feb-07 05:32N 53°32' E 009°57'0 0.0
2016-Feb-07 04:32N 53°32' E 009°57'0 0.0
2016-Feb-07 03:32N 53°32' E 009°57'0 0.0
2016-Feb-07 02:29N 53°32' E 009°57'0 0.0
2016-Feb-07 01:32N 53°32' E 009°57'0 0.0
2016-Feb-07 00:32N 53°32' E 009°57'0 0.0
2016-Feb-06 23:32N 53°32' E 009°57'0 0.0
2016-Feb-06 22:32N 53°32' E 009°57'0 0.0
2016-Feb-06 21:32N 53°32' E 009°57'0 0.0
2016-Feb-06 20:32N 53°32' E 009°57'0 0.0
2016-Feb-06 19:32N 53°32' E 009°57'0 0.0
2016-Feb-06 18:32N 53°32' E 009°57'0 0.0
2016-Feb-06 17:32N 53°32' E 009°57'0 0.0
2016-Feb-06 16:32N 53°32' E 009°57'0 0.0
2016-Feb-06 15:32N 53°32' E 009°57'0 0.0
2016-Feb-06 14:32N 53°32' E 009°57'0 0.0
2016-Feb-06 13:32N 53°32' E 009°57'0 0.0
2016-Feb-06 12:32N 53°32' E 009°57'0 0.0
2016-Feb-06 11:32N 53°32' E 009°57'0 0.0
2016-Feb-06 10:32N 53°32' E 009°57'0 0.0
2016-Feb-06 09:29N 53°32' E 009°57'0 0.0
2016-Feb-06 08:32N 53°32' E 009°57'0 0.0
2016-Feb-06 07:32N 53°32' E 009°57'0 0.0
2016-Feb-06 06:32N 53°32' E 009°57'0 0.0
2016-Feb-06 05:32N 53°32' E 009°57'0 0.0
2016-Feb-06 04:32N 53°32' E 009°57'0 0.0
2016-Feb-06 03:32N 53°32' E 009°57'0 0.0
2016-Feb-06 02:32N 53°32' E 009°57'0 0.0
2016-Feb-06 01:32N 53°32' E 009°57'0 0.0
2016-Feb-06 00:32N 53°32' E 009°57'0 0.0
2016-Feb-05 23:32N 53°32' E 009°57'0 0.0
2016-Feb-05 22:32N 53°32' E 009°57'0 0.0
2016-Feb-05 21:32N 53°32' E 009°57'0 0.0
2016-Feb-05 20:32N 53°32' E 009°57'0 0.0
2016-Feb-05 19:32N 53°32' E 009°57'0 0.0
2016-Feb-05 18:32N 53°32' E 009°57'0 0.0
2016-Feb-05 17:32N 53°32' E 009°57'0 0.0
2016-Feb-05 16:32N 53°32' E 009°57'0 0.0
2016-Feb-05 15:29N 53°32' E 009°57'0 0.0
2016-Feb-05 14:32N 53°32' E 009°57'0 0.0
2016-Feb-05 13:32N 53°32' E 009°57'0 0.0
2016-Feb-05 12:32N 53°32' E 009°57'0 0.0
2016-Feb-05 11:32N 53°32' E 009°57'0 0.0
2016-Feb-05 10:32N 53°32' E 009°57'0 0.0
2016-Feb-05 09:32N 53°32' E 009°57'0 0.0
2016-Feb-05 08:32N 53°32' E 009°57'0 0.0
2016-Feb-05 07:32N 53°32' E 009°57'0 0.0
2016-Feb-05 06:32N 53°32' E 009°57'0 0.0
2016-Feb-05 05:32N 53°32' E 009°57'0 0.0
2016-Feb-05 04:32N 53°32' E 009°57'0 0.0
2016-Feb-05 03:32N 53°32' E 009°57'0 0.0
2016-Feb-05 02:32N 53°32' E 009°57'0 0.0
2016-Feb-05 01:32N 53°32' E 009°57'0 0.0
2016-Feb-05 00:32N 53°32' E 009°57'0 0.0
2016-Feb-04 23:32N 53°32' E 009°57'0 0.0
2016-Feb-04 22:32N 53°32' E 009°57'0 0.0
2016-Feb-04 21:32N 53°32' E 009°57'0 0.0
2016-Feb-04 20:32N 53°32' E 009°57'0 0.0
2016-Feb-04 19:32N 53°32' E 009°57'0 0.0
2016-Feb-04 18:32N 53°32' E 009°57'0 0.0
2016-Feb-04 17:32N 53°32' E 009°57'0 0.0
2016-Feb-04 16:32N 53°32' E 009°57'0 0.0
2016-Feb-04 15:32N 53°32' E 009°57'0 0.0
2016-Feb-04 14:32N 53°32' E 009°57'0 0.0
2016-Feb-04 13:32N 53°32' E 009°57'0 0.0
2016-Feb-04 12:32N 53°32' E 009°57'0 0.0
2016-Feb-04 11:29N 53°32' E 009°57'0 0.0
2016-Feb-04 10:32N 53°32' E 009°57'0 0.0
2016-Feb-04 09:32N 53°32' E 009°57'0 0.0
2016-Feb-04 08:32N 53°32' E 009°57'0 0.0
2016-Feb-04 07:32N 53°32' E 009°57'0 0.0
2016-Feb-04 06:32N 53°32' E 009°57'0 0.0
2016-Feb-04 05:29N 53°32' E 009°57'0 0.0
2016-Feb-04 04:32N 53°32' E 009°57'0 0.0
2016-Feb-04 03:32N 53°32' E 009°57'0 0.0
2016-Feb-04 02:32N 53°32' E 009°57'0 0.0
2016-Feb-04 01:32N 53°32' E 009°57'0 0.0
2016-Feb-04 00:32N 53°32' E 009°57'0 0.0
2016-Feb-03 23:32N 53°32' E 009°57'0 0.0
2016-Feb-03 22:32N 53°32' E 009°57'0 0.0
2016-Feb-03 21:32N 53°32' E 009°57'0 0.0
2016-Feb-03 20:32N 53°32' E 009°57'0 0.0
2016-Feb-03 19:32N 53°32' E 009°57'0 0.0
2016-Feb-03 18:32N 53°32' E 009°57'0 0.0
2016-Feb-03 17:32N 53°32' E 009°57'0 0.0
2016-Feb-03 16:32N 53°32' E 009°57'0 0.0
2016-Feb-03 15:32N 53°32' E 009°57'0 0.0
2016-Feb-03 14:32N 53°32' E 009°57'0 0.0
2016-Feb-03 13:32N 53°32' E 009°57'0 0.0
2016-Feb-03 12:32N 53°32' E 009°57'0 0.0
2016-Feb-03 11:32N 53°32' E 009°57'0 0.0
2016-Feb-03 10:32N 53°32' E 009°57'0 0.0
2016-Feb-03 09:32N 53°32' E 009°57'0 0.0
2016-Feb-03 08:32N 53°32' E 009°57'0 0.1
2016-Feb-03 07:32N 53°32' E 009°57'0 0.0
2016-Feb-03 06:32N 53°32' E 009°57'0 0.0
2016-Feb-03 05:32N 53°32' E 009°57'0 0.1
2016-Feb-03 04:32N 53°32' E 009°57'0 0.0
2016-Feb-03 03:32N 53°32' E 009°57'0 0.0
2016-Feb-03 02:32N 53°32' E 009°57'0 0.0
2016-Feb-03 01:32N 53°32' E 009°57'0 0.0
2016-Feb-03 00:32N 53°32' E 009°57'0 0.0
2016-Feb-02 23:32N 53°32' E 009°57'0 0.0
2016-Feb-02 22:32N 53°32' E 009°57'0 0.0
2016-Feb-02 21:32N 53°32' E 009°57'0 0.0
2016-Feb-02 20:32N 53°32' E 009°57'0 0.0
2016-Feb-02 19:29N 53°32' E 009°57'0 0.0
2016-Feb-02 18:29N 53°32' E 009°57'0 0.0
2016-Feb-02 17:32N 53°32' E 009°57'0 0.0
2016-Feb-02 16:32N 53°32' E 009°57'0 0.0
2016-Feb-02 15:32N 53°32' E 009°57'0 0.0
2016-Feb-02 14:32N 53°32' E 009°57'0 0.0
2016-Feb-02 13:32N 53°32' E 009°57'0 0.0
2016-Feb-02 12:32N 53°32' E 009°57'0 0.0
2016-Feb-02 11:32N 53°32' E 009°57'0 0.0
2016-Feb-02 10:32N 53°32' E 009°57'0 0.0
2016-Feb-02 09:32N 53°32' E 009°57'0 0.0
2016-Feb-02 08:32N 53°32' E 009°57'0 0.0
2016-Feb-02 07:32N 53°32' E 009°57'0 0.0
2016-Feb-02 06:32N 53°32' E 009°57'0 0.0
2016-Feb-02 05:32N 53°32' E 009°57'0 0.0
2016-Feb-02 04:32N 53°32' E 009°57'0 0.0
2016-Feb-02 03:32N 53°32' E 009°57'0 0.0
2016-Feb-02 02:32N 53°32' E 009°57'0 0.0
2016-Feb-02 01:32N 53°32' E 009°57'0 0.0
2016-Feb-02 00:32N 53°32' E 009°57'0 0.0
2016-Feb-01 23:32N 53°32' E 009°57'0 0.0
2016-Feb-01 22:32N 53°32' E 009°57'0 0.0
2016-Feb-01 21:32N 53°32' E 009°57'0 0.0
2016-Feb-01 20:29N 53°32' E 009°57'0 0.0
2016-Feb-01 19:32N 53°32' E 009°57'0 0.0
2016-Feb-01 18:32N 53°32' E 009°57'0 0.0
2016-Feb-01 17:32N 53°32' E 009°57'0 0.0
2016-Feb-01 16:32N 53°32' E 009°57'0 0.0
2016-Feb-01 15:32N 53°32' E 009°57'0 0.0
2016-Feb-01 14:32N 53°32' E 009°57'0 0.0
2016-Feb-01 13:32N 53°32' E 009°57'0 0.0
2016-Feb-01 12:32N 53°32' E 009°57'0 0.0
2016-Feb-01 11:29N 53°32' E 009°57'0 0.0
2016-Feb-01 10:32N 53°32' E 009°57'0 0.0
2016-Feb-01 09:32N 53°32' E 009°57'0 0.0
2016-Feb-01 08:32N 53°32' E 009°57'0 0.0
2016-Feb-01 07:32N 53°32' E 009°57'0 0.0
2016-Feb-01 06:32N 53°32' E 009°57'0 0.0
2016-Feb-01 05:32N 53°32' E 009°57'0 0.0
2016-Feb-01 04:32N 53°32' E 009°57'0 0.0
2016-Feb-01 03:32N 53°32' E 009°57'0 0.0
2016-Feb-01 02:32N 53°32' E 009°57'0 0.0
2016-Feb-01 01:32N 53°32' E 009°57'0 0.0
2016-Feb-01 00:32N 53°32' E 009°57'0 0.0
2016-Jan-31 23:32N 53°32' E 009°57'0 0.0
2016-Jan-31 22:32N 53°32' E 009°57'0 0.0
2016-Jan-31 21:32N 53°32' E 009°57'0 0.0
2016-Jan-31 20:32N 53°32' E 009°57'0 0.0
2016-Jan-31 19:32N 53°32' E 009°57'0 0.0
2016-Jan-31 18:32N 53°32' E 009°57'0 0.0
2016-Jan-31 17:32N 53°32' E 009°57'0 0.0
2016-Jan-31 16:32N 53°32' E 009°57'0 0.0
2016-Jan-31 15:32N 53°32' E 009°57'0 0.0
2016-Jan-31 14:32N 53°32' E 009°57'0 0.0
2016-Jan-31 13:32N 53°32' E 009°57'0 0.0
2016-Jan-31 12:32N 53°32' E 009°57'0 0.0
2016-Jan-31 11:32N 53°32' E 009°57'0 0.0
2016-Jan-31 10:32N 53°32' E 009°57'0 0.0
2016-Jan-31 09:32N 53°32' E 009°57'0 0.0
2016-Jan-31 08:32N 53°32' E 009°57'0 0.0
2016-Jan-31 07:32N 53°32' E 009°57'0 0.0
2016-Jan-31 06:32N 53°32' E 009°57'0 0.0
2016-Jan-31 05:32N 53°32' E 009°57'0 0.0
2016-Jan-31 04:32N 53°32' E 009°57'0 0.0
2016-Jan-31 03:32N 53°32' E 009°57'0 0.0
2016-Jan-31 02:32N 53°32' E 009°57'0 0.0
2016-Jan-31 01:32N 53°32' E 009°57'0 0.0
2016-Jan-31 00:32N 53°32' E 009°57'0 0.0
2016-Jan-30 23:32N 53°32' E 009°57'0 0.0
2016-Jan-30 22:32N 53°32' E 009°57'0 0.0
2016-Jan-30 21:32N 53°32' E 009°57'0 0.0
2016-Jan-30 20:32N 53°32' E 009°57'0 0.0
2016-Jan-30 19:32N 53°32' E 009°57'0 0.0
2016-Jan-30 18:32N 53°32' E 009°57'0 0.0
2016-Jan-30 17:32N 53°32' E 009°57'0 0.0
2016-Jan-30 16:32N 53°32' E 009°57'0 0.0
2016-Jan-30 15:32N 53°32' E 009°57'0 0.0
2016-Jan-30 14:32N 53°32' E 009°57'0 0.0
2016-Jan-30 13:32N 53°32' E 009°57'0 0.0
2016-Jan-30 12:32N 53°32' E 009°57'0 0.0
2016-Jan-30 11:32N 53°32' E 009°57'0 0.0
2016-Jan-30 10:32N 53°32' E 009°57'0 0.0
2016-Jan-30 09:32N 53°32' E 009°57'0 0.0
2016-Jan-30 08:32N 53°32' E 009°57'0 0.0
2016-Jan-30 07:32N 53°32' E 009°57'0 0.0
2016-Jan-30 06:32N 53°32' E 009°57'0 0.0
2016-Jan-30 05:29N 53°32' E 009°57'0 0.0
2016-Jan-30 04:32N 53°32' E 009°57'0 0.0
2016-Jan-30 03:32N 53°32' E 009°57'0 0.0
2016-Jan-30 02:32N 53°32' E 009°57'0 0.0
2016-Jan-30 01:32N 53°32' E 009°57'0 0.0
2016-Jan-30 00:32N 53°32' E 009°57'0 0.0
2016-Jan-29 23:32N 53°32' E 009°57'0 0.0
2016-Jan-29 22:32N 53°32' E 009°57'0 0.0
2016-Jan-29 21:32N 53°32' E 009°57'0 0.0
2016-Jan-29 20:32N 53°32' E 009°57'  

Dump ship's entire track history